Portada
METAR-TAF:

METAR-TAF

Aeroports :

Kunming, Xina

latitud: 25-01N, longitud: 102-41E, altitud: 1892 m

Observació

L'informe es va fer fa 49 minuts, a les 06:00 UTC
Vent 16 kt del Nord/Nord-Est
Temperatura 15°C
Humitat 51%
Pressió 1028 hPa
Visibilitat 10 km o més
Escasses núvols a una alçada de 2300 ft
Cel ennuvolat a una alçada de 4000 ft

METAR: ZPPP 210600Z 02008MPS 9999 FEW023 BKN040 15/05 Q1028 NOSIG

Hora: 14:49 (06:49 UTC)

Pronòstic

L'informe es va fer fa 5 hores i 33 minuts, a les 01:16 UTC
Pronòstic vàlid del 21 a les 06 UTC al 22 a les 06 UTC
Vent 12 kt del Nord-Est
Visibilitat 10 km o més
Núvols disperses a una alçada de 2000 ft
Cel ennuvolat a una alçada de 3300 ft

TAF: ZPPP 210116Z 2106/2206 04006MPS 9999 SCT020 BKN033 TX16/2108Z TN11/2123Z

Observacions i pronòstics meteorològics de més de 4000 aeroports (METAR i TAF).

Les estacions disponibles són els punts grocs i vermells al mapa.

Posi el ratolí al punt desitjat per veure el nom de l'estació.

Feu clic per veure les observacions i els pronòstics meteorològics.

Per canviar el mapa: feu clic els botons verds amb una creu de color negre per apropar; al botó verd amb un guió per allunyar la imatge; o en les fletxes verdes per a mapes adjacents.


METAR-TAF: